createdAt,value
2022-10-09T00:00:37.051Z,1.95
2022-10-09T00:03:05.350Z,1.90
2022-10-09T00:05:43.070Z,2.05
2022-10-09T00:08:16.752Z,1.85
2022-10-09T00:10:45.051Z,1.80
2022-10-09T00:13:13.100Z,1.85
2022-10-09T00:15:44.423Z,2.17
2022-10-09T00:24:10.268Z,1.75
2022-10-09T00:26:42.213Z,1.48
2022-10-09T00:29:08.889Z,2.10
2022-10-09T00:44:59.719Z,1.42
2022-10-09T00:47:48.211Z,1.30
2022-10-09T00:50:25.664Z,1.80
2022-10-09T00:53:00.680Z,1.85
2022-10-09T00:58:24.615Z,1.83
2022-10-09T01:03:41.083Z,1.90
2022-10-09T01:06:42.301Z,1.75
2022-10-09T01:12:07.026Z,1.60
2022-10-09T01:14:49.010Z,1.73
2022-10-09T01:17:39.305Z,1.58
2022-10-09T01:23:48.941Z,2.00
2022-10-09T01:26:45.883Z,1.58
2022-10-09T01:31:58.717Z,1.50
2022-10-09T01:34:53.145Z,1.77
2022-10-09T01:37:26.491Z,1.77
2022-10-09T01:39:58.258Z,1.67
2022-10-09T01:45:42.362Z,1.83
2022-10-09T01:48:24.955Z,1.60
2022-10-09T01:51:01.975Z,1.63
2022-10-09T01:53:35.805Z,2.00
2022-10-09T01:56:09.325Z,1.92
2022-10-09T02:04:42.223Z,1.30
2022-10-09T02:07:10.230Z,1.75
2022-10-09T02:12:27.671Z,2.28
2022-10-09T02:14:55.108Z,1.63
2022-10-09T02:17:28.871Z,1.52
2022-10-09T02:20:04.474Z,1.63
2022-10-09T02:22:38.870Z,1.75
2022-10-09T02:25:07.870Z,1.75
2022-10-09T02:28:03.332Z,2.03
2022-10-09T02:30:48.671Z,1.52
2022-10-09T02:33:17.238Z,1.73
2022-10-09T02:35:48.024Z,1.80
2022-10-09T02:38:15.085Z,1.83
2022-10-09T02:40:43.426Z,2.03
2022-10-09T02:43:37.029Z,1.80
2022-10-09T02:46:05.953Z,1.80
2022-10-09T02:59:39.894Z,1.90
2022-10-09T03:02:07.316Z,1.98
2022-10-09T03:07:27.240Z,2.17
2022-10-09T03:13:07.665Z,1.77
2022-10-09T03:15:36.339Z,2.30
2022-10-09T03:18:11.240Z,1.90
2022-10-09T03:20:39.479Z,2.28
2022-10-09T03:23:38.417Z,2.00
2022-10-09T03:26:15.652Z,2.35
2022-10-09T03:28:51.796Z,1.88
2022-10-09T03:36:46.971Z,1.80
2022-10-09T03:39:19.873Z,1.83
2022-10-09T03:52:02.410Z,1.98
2022-10-09T03:54:29.946Z,2.30
2022-10-09T03:57:00.907Z,2.13
2022-10-09T03:59:33.250Z,1.95
2022-10-09T04:02:01.385Z,1.85
2022-10-09T04:04:30.904Z,2.38
2022-10-09T04:06:59.391Z,2.28
2022-10-09T04:12:09.591Z,1.80
2022-10-09T04:14:46.924Z,2.30
2022-10-09T04:20:07.696Z,1.70
2022-10-09T04:22:35.186Z,1.92
2022-10-09T04:25:03.809Z,1.52
2022-10-09T04:30:28.782Z,2.35
2022-10-09T04:33:02.233Z,2.10
2022-10-09T04:35:30.870Z,2.47
2022-10-09T04:38:06.934Z,2.53
2022-10-09T04:40:35.908Z,2.67
2022-10-09T04:43:03.468Z,2.65
2022-10-09T04:45:31.310Z,2.75
2022-10-09T04:48:04.413Z,2.92
2022-10-09T04:50:39.459Z,2.60
2022-10-09T04:53:07.250Z,2.95
2022-10-09T05:03:02.944Z,2.70
2022-10-09T05:05:32.764Z,2.50
2022-10-09T05:08:25.176Z,2.92
2022-10-09T05:10:53.290Z,2.95
2022-10-09T05:13:21.149Z,2.63
2022-10-09T05:15:54.255Z,2.60
2022-10-09T05:18:21.162Z,2.95
2022-10-09T05:21:15.033Z,2.97
2022-10-09T05:23:43.913Z,2.72
2022-10-09T05:26:13.755Z,2.60
2022-10-09T05:28:41.204Z,2.65
2022-10-09T05:31:33.072Z,2.30
2022-10-09T05:34:01.779Z,2.72
2022-10-09T05:36:29.429Z,2.88
2022-10-09T05:38:57.617Z,2.35
2022-10-09T05:41:25.122Z,2.25
2022-10-09T05:46:49.132Z,2.50
2022-10-09T05:52:09.192Z,2.72
2022-10-09T05:54:37.168Z,3.65
2022-10-09T05:57:10.120Z,2.78
2022-10-09T05:59:37.424Z,2.92
2022-10-09T06:02:05.413Z,2.55
2022-10-09T06:04:33.144Z,2.85
2022-10-09T06:12:45.353Z,3.22
2022-10-09T06:15:13.527Z,3.05
2022-10-09T06:17:41.118Z,2.88
2022-10-09T06:20:09.567Z,2.72
2022-10-09T06:22:37.151Z,2.55
2022-10-09T06:25:11.234Z,3.15
2022-10-09T06:27:39.458Z,3.72
2022-10-09T06:30:07.802Z,2.72
2022-10-09T06:32:35.054Z,3.53
2022-10-09T06:35:08.120Z,3.58
2022-10-09T06:37:35.053Z,3.65
2022-10-09T06:40:03.326Z,3.67
2022-10-09T06:42:31.061Z,3.47
2022-10-09T06:44:59.270Z,3.25
2022-10-09T06:47:27.127Z,3.53
2022-10-09T06:52:47.576Z,3.60
2022-10-09T06:55:15.153Z,2.90
2022-10-09T06:58:12.530Z,3.42
2022-10-09T07:00:41.037Z,3.00
2022-10-09T07:03:09.367Z,3.00
2022-10-09T07:05:37.183Z,2.90
2022-10-09T07:08:05.033Z,3.70
2022-10-09T07:10:38.150Z,3.30
2022-10-09T07:13:05.159Z,3.38
2022-10-09T07:15:59.495Z,3.38
2022-10-09T07:18:33.494Z,3.67
2022-10-09T07:21:04.649Z,3.25
2022-10-09T07:24:00.413Z,3.28
2022-10-09T07:26:54.458Z,3.05
2022-10-09T07:29:26.417Z,3.70
2022-10-09T07:31:53.057Z,3.22
2022-10-09T07:34:25.217Z,3.47
2022-10-09T07:36:53.464Z,3.20
2022-10-09T07:39:21.464Z,3.08
2022-10-09T07:42:16.439Z,3.80
2022-10-09T07:44:45.170Z,3.38
2022-10-09T07:47:13.084Z,3.42
2022-10-09T07:49:41.090Z,3.80
2022-10-09T07:52:13.336Z,3.65
2022-10-09T07:54:41.243Z,3.90
2022-10-09T07:57:09.206Z,3.25
2022-10-09T08:00:01.096Z,3.78
2022-10-09T08:02:31.254Z,4.28
2022-10-09T08:04:59.095Z,3.55
2022-10-09T08:07:31.359Z,2.95
2022-10-09T08:10:01.285Z,3.25
2022-10-09T08:12:55.152Z,3.50
2022-10-09T08:15:23.390Z,3.70
2022-10-09T08:17:55.241Z,3.63
2022-10-09T08:20:27.283Z,4.00
2022-10-09T08:22:55.262Z,4.35
2022-10-09T08:25:38.032Z,3.33
2022-10-09T09:52:55.475Z,2.42
2022-10-09T09:55:27.818Z,2.28
2022-10-09T10:01:27.340Z,2.92
2022-10-09T10:03:58.330Z,2.03
2022-10-09T10:06:42.093Z,2.80
2022-10-09T10:09:18.581Z,2.38
2022-10-09T10:12:03.775Z,1.80
2022-10-09T13:25:01.418Z,0.95
2022-10-09T13:27:37.872Z,1.25
2022-10-09T13:30:16.546Z,1.20
2022-10-09T13:32:50.124Z,1.40
2022-10-09T13:35:17.821Z,1.40
2022-10-09T13:37:45.317Z,1.52
2022-10-09T13:40:20.847Z,1.00
2022-10-09T13:42:54.305Z,1.50
2022-10-09T14:40:45.938Z,1.00
2022-10-09T14:43:13.161Z,0.85
2022-10-09T14:45:41.104Z,1.20
2022-10-09T14:48:39.621Z,1.00
2022-10-09T14:51:11.095Z,1.13
2022-10-09T14:53:43.543Z,0.98
2022-10-09T14:56:13.786Z,0.98
2022-10-09T14:58:47.932Z,1.02
2022-10-09T15:01:22.540Z,0.80
2022-10-09T15:03:51.188Z,0.98
2022-10-09T15:06:27.605Z,1.02
2022-10-09T15:09:00.403Z,1.02
2022-10-09T15:11:31.111Z,1.25
2022-10-09T15:14:04.312Z,1.08
2022-10-09T15:16:31.124Z,1.27
2022-10-09T15:18:59.221Z,1.00
2022-10-09T15:21:30.380Z,1.00
2022-10-09T15:26:56.197Z,0.93
2022-10-09T15:29:23.278Z,1.13
2022-10-09T15:31:54.245Z,1.50
2022-10-09T15:39:52.847Z,1.20
2022-10-09T15:42:25.152Z,1.60
2022-10-09T15:50:20.706Z,1.45
2022-10-09T15:58:33.395Z,1.65
2022-10-09T16:03:53.239Z,1.30
2022-10-09T16:06:47.130Z,1.40
2022-10-09T16:09:23.276Z,1.30
2022-10-09T16:11:56.976Z,1.60
2022-10-09T16:14:28.642Z,1.40
2022-10-09T16:17:06.529Z,1.60
2022-10-09T16:19:37.332Z,1.55
2022-10-09T16:26:17.807Z,2.00
2022-10-09T16:50:14.407Z,2.05
2022-10-09T17:01:37.272Z,2.60
2022-10-09T17:04:10.015Z,2.97
2022-10-09T17:06:37.336Z,2.20
2022-10-09T17:12:08.812Z,2.85
2022-10-09T17:17:43.158Z,2.47
2022-10-09T18:14:17.083Z,1.85
2022-10-09T18:41:13.472Z,2.00
2022-10-09T18:43:42.227Z,1.70
2022-10-09T18:49:09.476Z,2.05
2022-10-09T18:51:39.702Z,1.73
2022-10-09T19:00:26.864Z,2.42
2022-10-09T19:07:23.562Z,1.70
2022-10-09T19:16:06.269Z,2.10
2022-10-09T19:57:29.222Z,1.67
2022-10-09T20:00:00.804Z,2.35
2022-10-09T20:22:41.526Z,1.60
2022-10-09T21:17:09.085Z,2.10
2022-10-09T21:30:46.935Z,1.75
2022-10-09T21:43:20.946Z,1.58
2022-10-09T23:26:36.326Z,1.70
2022-10-09T23:44:22.269Z,1.40
2022-10-09T23:46:50.051Z,1.38
2022-10-09T23:49:22.566Z,1.40
